Oak Grove, Wisconsin
Current Conditions -  °F | °C
As of 12:51 PM on Tuesday 27 Jan 2015 (Local Time) from KRGK Reporting Station
Overcast Overcast  
Wind Chill: 26°   Ceiling: 2000
Heat Index: 32°   Visibility: 10mi
Dew Point: 25°   Wind: 7mph
Humidity: 75%   Direction: 120°ESE
Pressure: 30.18"   Gusts: NA
Location:  44.7392°N, 92.6641°W
Report Text: KRGK 271851Z AUTO 12006KT 10SM OVC020 00/M04 A3018 RMK AO2
Loading
Personal Weather Stations






























Interactive Weather Map New forecast layout! Learn more

10-Day Weather Forecast

Advertisements
Track Severe Weather on mobile